sensor_id;sensor_type;location;lat;lon;timestamp;temperature;humidity
4097;DHT22;2062;50.694;7.246;2023-03-13T00:01:36;10.10;57.70
4097;DHT22;2062;50.694;7.246;2023-03-13T00:04:05;10.10;57.80
4097;DHT22;2062;50.694;7.246;2023-03-13T00:06:33;10.20;57.60
4097;DHT22;2062;50.694;7.246;2023-03-13T00:09:02;10.20;57.80
4097;DHT22;2062;50.694;7.246;2023-03-13T00:11:30;10.20;57.70
4097;DHT22;2062;50.694;7.246;2023-03-13T00:13:58;10.20;57.70
4097;DHT22;2062;50.694;7.246;2023-03-13T00:16:26;10.20;57.70
4097;DHT22;2062;50.694;7.246;2023-03-13T00:18:54;10.20;57.70
4097;DHT22;2062;50.694;7.246;2023-03-13T00:21:24;10.20;57.70
4097;DHT22;2062;50.694;7.246;2023-03-13T00:23:52;10.30;58.00
4097;DHT22;2062;50.694;7.246;2023-03-13T00:26:20;10.20;57.80
4097;DHT22;2062;50.694;7.246;2023-03-13T00:28:48;10.30;57.90
4097;DHT22;2062;50.694;7.246;2023-03-13T00:31:16;10.30;57.80
4097;DHT22;2062;50.694;7.246;2023-03-13T00:33:45;10.30;57.80
4097;DHT22;2062;50.694;7.246;2023-03-13T00:36:14;10.30;58.00
4097;DHT22;2062;50.694;7.246;2023-03-13T00:38:43;10.40;57.90
4097;DHT22;2062;50.694;7.246;2023-03-13T00:41:11;10.40;58.00
4097;DHT22;2062;50.694;7.246;2023-03-13T00:43:39;10.40;58.00
4097;DHT22;2062;50.694;7.246;2023-03-13T00:46:07;10.40;58.20
4097;DHT22;2062;50.694;7.246;2023-03-13T00:48:33;10.40;58.00
4097;DHT22;2062;50.694;7.246;2023-03-13T00:51:01;10.40;58.90
4097;DHT22;2062;50.694;7.246;2023-03-13T00:53:29;10.50;58.80
4097;DHT22;2062;50.694;7.246;2023-03-13T00:55:58;10.50;58.90
4097;DHT22;2062;50.694;7.246;2023-03-13T00:58:27;10.60;58.90
4097;DHT22;2062;50.694;7.246;2023-03-13T01:00:54;10.50;59.00
4097;DHT22;2062;50.694;7.246;2023-03-13T01:03:23;10.50;59.20
4097;DHT22;2062;50.694;7.246;2023-03-13T01:05:57;10.50;59.50
4097;DHT22;2062;50.694;7.246;2023-03-13T01:08:25;10.60;59.70
4097;DHT22;2062;50.694;7.246;2023-03-13T01:10:58;10.60;59.70
4097;DHT22;2062;50.694;7.246;2023-03-13T01:13:26;10.50;60.10
4097;DHT22;2062;50.694;7.246;2023-03-13T01:15:53;10.60;60.00
4097;DHT22;2062;50.694;7.246;2023-03-13T01:18:19;10.60;60.30
4097;DHT22;2062;50.694;7.246;2023-03-13T01:20:46;10.60;61.20
4097;DHT22;2062;50.694;7.246;2023-03-13T01:23:13;10.60;60.30
4097;DHT22;2062;50.694;7.246;2023-03-13T01:25:40;10.60;60.20
4097;DHT22;2062;50.694;7.246;2023-03-13T01:28:08;10.50;60.10
4097;DHT22;2062;50.694;7.246;2023-03-13T01:30:35;10.60;60.30
4097;DHT22;2062;50.694;7.246;2023-03-13T01:33:02;10.60;61.10
4097;DHT22;2062;50.694;7.246;2023-03-13T01:35:29;10.50;60.40
4097;DHT22;2062;50.694;7.246;2023-03-13T01:37:56;10.60;60.40
4097;DHT22;2062;50.694;7.246;2023-03-13T01:40:23;10.60;60.50
4097;DHT22;2062;50.694;7.246;2023-03-13T01:42:51;10.60;60.40
4097;DHT22;2062;50.694;7.246;2023-03-13T01:46:03;10.50;60.40
4097;DHT22;2062;50.694;7.246;2023-03-13T01:48:35;10.60;60.50
4097;DHT22;2062;50.694;7.246;2023-03-13T01:51:07;10.60;61.30
4097;DHT22;2062;50.694;7.246;2023-03-13T01:53:36;10.60;60.70
4097;DHT22;2062;50.694;7.246;2023-03-13T01:56:05;10.60;60.80
4097;DHT22;2062;50.694;7.246;2023-03-13T01:58:35;10.60;60.70
4097;DHT22;2062;50.694;7.246;2023-03-13T02:01:04;10.60;60.90
4097;DHT22;2062;50.694;7.246;2023-03-13T02:03:33;10.60;60.80
4097;DHT22;2062;50.694;7.246;2023-03-13T02:06:02;10.50;60.90
4097;DHT22;2062;50.694;7.246;2023-03-13T02:08:33;10.50;61.00
4097;DHT22;2062;50.694;7.246;2023-03-13T02:11:07;10.60;60.90
4097;DHT22;2062;50.694;7.246;2023-03-13T02:13:36;10.60;60.80
4097;DHT22;2062;50.694;7.246;2023-03-13T02:16:05;10.60;61.20
4097;DHT22;2062;50.694;7.246;2023-03-13T02:18:33;10.60;61.00
4097;DHT22;2062;50.694;7.246;2023-03-13T02:21:09;10.60;61.20
4097;DHT22;2062;50.694;7.246;2023-03-13T02:23:42;10.60;61.10
4097;DHT22;2062;50.694;7.246;2023-03-13T02:26:12;10.60;61.20
4097;DHT22;2062;50.694;7.246;2023-03-13T02:28:39;10.60;61.20
4097;DHT22;2062;50.694;7.246;2023-03-13T02:31:07;10.60;61.50
4097;DHT22;2062;50.694;7.246;2023-03-13T02:33:37;10.60;61.30
4097;DHT22;2062;50.694;7.246;2023-03-13T02:36:06;10.60;61.10
4097;DHT22;2062;50.694;7.246;2023-03-13T02:38:36;10.60;61.30
4097;DHT22;2062;50.694;7.246;2023-03-13T02:41:04;10.70;61.70
4097;DHT22;2062;50.694;7.246;2023-03-13T02:43:34;10.60;61.60
4097;DHT22;2062;50.694;7.246;2023-03-13T02:46:04;10.60;61.70
4097;DHT22;2062;50.694;7.246;2023-03-13T02:48:33;10.70;62.10
4097;DHT22;2062;50.694;7.246;2023-03-13T02:51:01;10.70;62.20
4097;DHT22;2062;50.694;7.246;2023-03-13T02:53:29;10.60;62.40
4097;DHT22;2062;50.694;7.246;2023-03-13T02:55:57;10.70;62.50
4097;DHT22;2062;50.694;7.246;2023-03-13T02:58:24;10.70;62.40
4097;DHT22;2062;50.694;7.246;2023-03-13T03:00:52;10.70;62.80
4097;DHT22;2062;50.694;7.246;2023-03-13T03:03:19;10.70;63.30
4097;DHT22;2062;50.694;7.246;2023-03-13T03:05:46;10.70;63.70
4097;DHT22;2062;50.694;7.246;2023-03-13T03:08:13;10.70;63.50
4097;DHT22;2062;50.694;7.246;2023-03-13T03:10:40;10.70;63.70
4097;DHT22;2062;50.694;7.246;2023-03-13T03:13:07;10.70;63.80
4097;DHT22;2062;50.694;7.246;2023-03-13T03:15:33;10.70;63.60
4097;DHT22;2062;50.694;7.246;2023-03-13T03:18:02;10.70;64.00
4097;DHT22;2062;50.694;7.246;2023-03-13T03:20:28;10.70;64.80
4097;DHT22;2062;50.694;7.246;2023-03-13T03:22:56;10.70;64.30
4097;DHT22;2062;50.694;7.246;2023-03-13T03:25:22;10.70;64.70
4097;DHT22;2062;50.694;7.246;2023-03-13T03:27:49;10.70;64.50
4097;DHT22;2062;50.694;7.246;2023-03-13T03:30:16;10.70;64.90
4097;DHT22;2062;50.694;7.246;2023-03-13T03:32:43;10.70;64.60
4097;DHT22;2062;50.694;7.246;2023-03-13T03:35:11;10.70;64.80
4097;DHT22;2062;50.694;7.246;2023-03-13T03:37:38;10.70;64.80
4097;DHT22;2062;50.694;7.246;2023-03-13T03:40:06;10.70;64.70
4097;DHT22;2062;50.694;7.246;2023-03-13T03:42:34;10.70;65.00
4097;DHT22;2062;50.694;7.246;2023-03-13T03:45:01;10.80;65.00
4097;DHT22;2062;50.694;7.246;2023-03-13T03:47:28;10.80;65.00
4097;DHT22;2062;50.694;7.246;2023-03-13T03:49:55;10.80;65.20
4097;DHT22;2062;50.694;7.246;2023-03-13T03:52:23;10.80;65.50
4097;DHT22;2062;50.694;7.246;2023-03-13T03:54:50;10.80;66.30
4097;DHT22;2062;50.694;7.246;2023-03-13T03:57:17;10.80;66.20
4097;DHT22;2062;50.694;7.246;2023-03-13T03:59:43;10.80;66.20
4097;DHT22;2062;50.694;7.246;2023-03-13T04:02:10;10.90;66.30
4097;DHT22;2062;50.694;7.246;2023-03-13T04:04:37;10.90;66.60
4097;DHT22;2062;50.694;7.246;2023-03-13T04:07:04;10.90;66.60
4097;DHT22;2062;50.694;7.246;2023-03-13T04:09:32;10.90;67.00
4097;DHT22;2062;50.694;7.246;2023-03-13T04:11:59;10.90;66.60
4097;DHT22;2062;50.694;7.246;2023-03-13T04:14:27;10.90;66.90
4097;DHT22;2062;50.694;7.246;2023-03-13T04:16:54;11.00;66.60
4097;DHT22;2062;50.694;7.246;2023-03-13T04:19:21;11.00;66.80
4097;DHT22;2062;50.694;7.246;2023-03-13T04:21:48;11.00;66.60
4097;DHT22;2062;50.694;7.246;2023-03-13T04:24:15;11.00;67.10
4097;DHT22;2062;50.694;7.246;2023-03-13T04:26:43;11.10;68.00
4097;DHT22;2062;50.694;7.246;2023-03-13T04:29:10;11.00;66.70
4097;DHT22;2062;50.694;7.246;2023-03-13T04:31:37;11.10;66.80
4097;DHT22;2062;50.694;7.246;2023-03-13T04:34:04;11.10;67.10
4097;DHT22;2062;50.694;7.246;2023-03-13T04:36:30;11.10;67.10
4097;DHT22;2062;50.694;7.246;2023-03-13T04:38:57;11.10;66.90
4097;DHT22;2062;50.694;7.246;2023-03-13T04:41:24;11.10;66.90
4097;DHT22;2062;50.694;7.246;2023-03-13T04:43:52;11.10;66.90
4097;DHT22;2062;50.694;7.246;2023-03-13T04:46:19;11.10;67.10
4097;DHT22;2062;50.694;7.246;2023-03-13T04:48:45;11.10;67.10
4097;DHT22;2062;50.694;7.246;2023-03-13T04:51:13;11.10;67.30
4097;DHT22;2062;50.694;7.246;2023-03-13T04:53:40;11.20;67.50
4097;DHT22;2062;50.694;7.246;2023-03-13T04:56:06;11.20;67.80
4097;DHT22;2062;50.694;7.246;2023-03-13T04:58:34;11.20;67.70
4097;DHT22;2062;50.694;7.246;2023-03-13T05:01:02;11.20;67.70
4097;DHT22;2062;50.694;7.246;2023-03-13T05:03:29;11.30;68.30
4097;DHT22;2062;50.694;7.246;2023-03-13T05:05:56;11.30;68.20
4097;DHT22;2062;50.694;7.246;2023-03-13T05:08:23;11.30;68.20
4097;DHT22;2062;50.694;7.246;2023-03-13T05:10:49;11.30;68.20
4097;DHT22;2062;50.694;7.246;2023-03-13T05:13:16;11.30;68.10
4097;DHT22;2062;50.694;7.246;2023-03-13T05:15:43;11.40;68.20
4097;DHT22;2062;50.694;7.246;2023-03-13T05:18:11;11.40;68.20
4097;DHT22;2062;50.694;7.246;2023-03-13T05:20:38;11.40;68.70
4097;DHT22;2062;50.694;7.246;2023-03-13T05:23:05;11.40;68.30
4097;DHT22;2062;50.694;7.246;2023-03-13T05:25:32;11.50;68.50
4097;DHT22;2062;50.694;7.246;2023-03-13T05:27:59;11.50;68.40
4097;DHT22;2062;50.694;7.246;2023-03-13T05:30:26;11.50;68.80
4097;DHT22;2062;50.694;7.246;2023-03-13T05:32:53;11.60;68.40
4097;DHT22;2062;50.694;7.246;2023-03-13T05:35:21;11.60;68.30
4097;DHT22;2062;50.694;7.246;2023-03-13T05:37:48;11.60;68.50
4097;DHT22;2062;50.694;7.246;2023-03-13T05:40:16;11.60;68.40
4097;DHT22;2062;50.694;7.246;2023-03-13T05:42:43;11.60;68.10
4097;DHT22;2062;50.694;7.246;2023-03-13T05:45:11;11.70;68.40
4097;DHT22;2062;50.694;7.246;2023-03-13T05:47:38;11.70;68.60
4097;DHT22;2062;50.694;7.246;2023-03-13T05:50:07;11.70;68.30
4097;DHT22;2062;50.694;7.246;2023-03-13T05:52:36;11.70;68.40
4097;DHT22;2062;50.694;7.246;2023-03-13T05:55:04;11.70;68.60
4097;DHT22;2062;50.694;7.246;2023-03-13T05:57:31;11.80;68.40
4097;DHT22;2062;50.694;7.246;2023-03-13T05:59:58;11.80;68.30
4097;DHT22;2062;50.694;7.246;2023-03-13T06:02:25;11.80;68.40
4097;DHT22;2062;50.694;7.246;2023-03-13T06:04:52;11.80;68.40
4097;DHT22;2062;50.694;7.246;2023-03-13T06:07:18;11.80;68.40
4097;DHT22;2062;50.694;7.246;2023-03-13T06:09:47;11.90;68.50
4097;DHT22;2062;50.694;7.246;2023-03-13T06:12:13;11.90;68.70
4097;DHT22;2062;50.694;7.246;2023-03-13T06:14:40;11.90;68.80
4097;DHT22;2062;50.694;7.246;2023-03-13T06:17:07;11.90;68.90
4097;DHT22;2062;50.694;7.246;2023-03-13T06:19:34;11.90;68.70
4097;DHT22;2062;50.694;7.246;2023-03-13T06:22:01;12.00;69.30
4097;DHT22;2062;50.694;7.246;2023-03-13T06:24:27;12.00;69.10
4097;DHT22;2062;50.694;7.246;2023-03-13T06:26:55;12.00;69.00
4097;DHT22;2062;50.694;7.246;2023-03-13T06:29:23;12.00;69.30
4097;DHT22;2062;50.694;7.246;2023-03-13T06:31:50;12.10;69.10
4097;DHT22;2062;50.694;7.246;2023-03-13T06:34:17;12.10;69.10
4097;DHT22;2062;50.694;7.246;2023-03-13T06:36:44;12.10;69.00
4097;DHT22;2062;50.694;7.246;2023-03-13T06:39:11;12.20;69.20
4097;DHT22;2062;50.694;7.246;2023-03-13T06:41:38;12.20;69.90
4097;DHT22;2062;50.694;7.246;2023-03-13T06:44:06;12.20;69.20
4097;DHT22;2062;50.694;7.246;2023-03-13T06:46:33;12.20;69.20
4097;DHT22;2062;50.694;7.246;2023-03-13T06:49:00;12.20;69.20
4097;DHT22;2062;50.694;7.246;2023-03-13T06:51:29;12.20;69.10
4097;DHT22;2062;50.694;7.246;2023-03-13T06:53:56;12.40;69.20
4097;DHT22;2062;50.694;7.246;2023-03-13T06:56:23;12.40;69.40
4097;DHT22;2062;50.694;7.246;2023-03-13T06:58:50;12.40;69.40
4097;DHT22;2062;50.694;7.246;2023-03-13T07:01:18;12.50;69.30
4097;DHT22;2062;50.694;7.246;2023-03-13T07:03:46;12.50;69.20
4097;DHT22;2062;50.694;7.246;2023-03-13T07:06:13;12.50;69.20
4097;DHT22;2062;50.694;7.246;2023-03-13T07:08:41;12.50;69.10
4097;DHT22;2062;50.694;7.246;2023-03-13T07:11:10;12.60;69.10
4097;DHT22;2062;50.694;7.246;2023-03-13T07:13:37;12.60;69.10
4097;DHT22;2062;50.694;7.246;2023-03-13T07:16:06;12.60;69.40
4097;DHT22;2062;50.694;7.246;2023-03-13T07:18:35;12.60;69.10
4097;DHT22;2062;50.694;7.246;2023-03-13T07:21:03;12.70;69.10
4097;DHT22;2062;50.694;7.246;2023-03-13T07:23:32;12.70;69.00
4097;DHT22;2062;50.694;7.246;2023-03-13T07:26:00;12.70;69.00
4097;DHT22;2062;50.694;7.246;2023-03-13T07:28:28;12.70;69.00
4097;DHT22;2062;50.694;7.246;2023-03-13T07:31:03;12.80;68.80
4097;DHT22;2062;50.694;7.246;2023-03-13T07:33:30;12.80;68.80
4097;DHT22;2062;50.694;7.246;2023-03-13T07:35:58;12.80;68.70
4097;DHT22;2062;50.694;7.246;2023-03-13T07:38:25;12.80;68.50
4097;DHT22;2062;50.694;7.246;2023-03-13T07:40:54;12.80;68.40
4097;DHT22;2062;50.694;7.246;2023-03-13T07:43:22;12.80;68.20
4097;DHT22;2062;50.694;7.246;2023-03-13T07:45:50;12.80;68.10
4097;DHT22;2062;50.694;7.246;2023-03-13T07:48:17;12.90;68.10
4097;DHT22;2062;50.694;7.246;2023-03-13T07:50:44;12.90;67.90
4097;DHT22;2062;50.694;7.246;2023-03-13T07:53:12;12.90;67.90
4097;DHT22;2062;50.694;7.246;2023-03-13T07:55:56;13.00;67.70
4097;DHT22;2062;50.694;7.246;2023-03-13T07:58:25;12.90;67.70
4097;DHT22;2062;50.694;7.246;2023-03-13T08:00:52;12.90;67.50
4097;DHT22;2062;50.694;7.246;2023-03-13T08:03:19;13.00;67.50
4097;DHT22;2062;50.694;7.246;2023-03-13T08:05:46;13.00;67.50
4097;DHT22;2062;50.694;7.246;2023-03-13T08:08:14;13.00;67.50
4097;DHT22;2062;50.694;7.246;2023-03-13T08:10:41;13.00;67.50
4097;DHT22;2062;50.694;7.246;2023-03-13T08:13:09;13.10;67.40
4097;DHT22;2062;50.694;7.246;2023-03-13T08:15:36;13.10;67.20
4097;DHT22;2062;50.694;7.246;2023-03-13T08:18:03;13.10;67.00
4097;DHT22;2062;50.694;7.246;2023-03-13T08:20:30;13.20;66.80
4097;DHT22;2062;50.694;7.246;2023-03-13T08:22:57;13.20;66.80
4097;DHT22;2062;50.694;7.246;2023-03-13T08:25:25;13.30;66.80
4097;DHT22;2062;50.694;7.246;2023-03-13T08:27:52;13.30;66.80
4097;DHT22;2062;50.694;7.246;2023-03-13T08:30:20;13.30;66.70
4097;DHT22;2062;50.694;7.246;2023-03-13T08:32:47;13.40;66.50
4097;DHT22;2062;50.694;7.246;2023-03-13T08:35:14;13.40;66.40
4097;DHT22;2062;50.694;7.246;2023-03-13T08:37:40;13.40;66.30
4097;DHT22;2062;50.694;7.246;2023-03-13T08:40:09;13.40;66.30
4097;DHT22;2062;50.694;7.246;2023-03-13T08:42:38;13.50;66.00
4097;DHT22;2062;50.694;7.246;2023-03-13T08:45:06;13.50;66.00
4097;DHT22;2062;50.694;7.246;2023-03-13T08:47:33;13.60;65.90
4097;DHT22;2062;50.694;7.246;2023-03-13T08:50:00;13.60;65.70
4097;DHT22;2062;50.694;7.246;2023-03-13T08:52:26;13.60;65.70
4097;DHT22;2062;50.694;7.246;2023-03-13T08:54:53;13.60;65.60
4097;DHT22;2062;50.694;7.246;2023-03-13T08:57:21;13.60;65.60
4097;DHT22;2062;50.694;7.246;2023-03-13T08:59:49;13.60;65.30
4097;DHT22;2062;50.694;7.246;2023-03-13T09:02:16;13.60;65.30
4097;DHT22;2062;50.694;7.246;2023-03-13T09:04:46;13.70;65.40
4097;DHT22;2062;50.694;7.246;2023-03-13T09:07:13;13.70;65.20
4097;DHT22;2062;50.694;7.246;2023-03-13T09:09:41;13.70;65.30
4097;DHT22;2062;50.694;7.246;2023-03-13T09:12:09;13.80;65.30
4097;DHT22;2062;50.694;7.246;2023-03-13T09:14:36;13.70;65.00
4097;DHT22;2062;50.694;7.246;2023-03-13T09:17:04;13.70;65.20
4097;DHT22;2062;50.694;7.246;2023-03-13T09:19:31;13.70;65.20
4097;DHT22;2062;50.694;7.246;2023-03-13T09:21:58;13.80;65.20
4097;DHT22;2062;50.694;7.246;2023-03-13T09:24:25;13.80;65.10
4097;DHT22;2062;50.694;7.246;2023-03-13T09:26:52;13.80;65.10
4097;DHT22;2062;50.694;7.246;2023-03-13T09:29:19;13.80;65.10
4097;DHT22;2062;50.694;7.246;2023-03-13T09:31:46;13.90;65.20
4097;DHT22;2062;50.694;7.246;2023-03-13T09:34:14;13.80;65.90
4097;DHT22;2062;50.694;7.246;2023-03-13T09:36:41;13.80;65.10
4097;DHT22;2062;50.694;7.246;2023-03-13T09:39:08;13.80;65.20
4097;DHT22;2062;50.694;7.246;2023-03-13T09:41:38;13.80;65.30
4097;DHT22;2062;50.694;7.246;2023-03-13T09:44:11;13.80;65.30
4097;DHT22;2062;50.694;7.246;2023-03-13T09:46:43;13.90;65.50
4097;DHT22;2062;50.694;7.246;2023-03-13T09:49:28;13.90;65.60
4097;DHT22;2062;50.694;7.246;2023-03-13T09:52:01;13.90;65.70
4097;DHT22;2062;50.694;7.246;2023-03-13T09:54:35;13.90;65.70
4097;DHT22;2062;50.694;7.246;2023-03-13T09:57:10;13.90;65.70
4097;DHT22;2062;50.694;7.246;2023-03-13T09:59:43;13.90;65.80
4097;DHT22;2062;50.694;7.246;2023-03-13T10:02:20;13.90;65.90
4097;DHT22;2062;50.694;7.246;2023-03-13T10:04:54;13.90;65.90
4097;DHT22;2062;50.694;7.246;2023-03-13T10:07:22;13.90;66.00
4097;DHT22;2062;50.694;7.246;2023-03-13T10:09:49;13.90;66.10
4097;DHT22;2062;50.694;7.246;2023-03-13T10:12:19;13.90;66.20
4097;DHT22;2062;50.694;7.246;2023-03-13T10:14:53;13.90;66.20
4097;DHT22;2062;50.694;7.246;2023-03-13T10:17:30;13.90;66.10
4097;DHT22;2062;50.694;7.246;2023-03-13T10:20:01;13.90;66.10
4097;DHT22;2062;50.694;7.246;2023-03-13T10:22:35;13.90;66.20
4097;DHT22;2062;50.694;7.246;2023-03-13T10:25:05;13.90;66.10
4097;DHT22;2062;50.694;7.246;2023-03-13T10:27:42;13.90;66.30
4097;DHT22;2062;50.694;7.246;2023-03-13T10:30:21;14.00;66.30
4097;DHT22;2062;50.694;7.246;2023-03-13T10:32:49;14.00;66.40
4097;DHT22;2062;50.694;7.246;2023-03-13T10:35:32;14.00;66.40
4097;DHT22;2062;50.694;7.246;2023-03-13T10:38:02;14.00;66.40
4097;DHT22;2062;50.694;7.246;2023-03-13T10:40:30;14.10;66.40
4097;DHT22;2062;50.694;7.246;2023-03-13T10:43:03;14.10;66.40
4097;DHT22;2062;50.694;7.246;2023-03-13T10:45:32;14.10;66.30
4097;DHT22;2062;50.694;7.246;2023-03-13T10:48:02;14.10;66.40
4097;DHT22;2062;50.694;7.246;2023-03-13T10:50:34;14.10;66.40
4097;DHT22;2062;50.694;7.246;2023-03-13T10:53:20;14.20;66.30
4097;DHT22;2062;50.694;7.246;2023-03-13T10:55:48;14.20;66.30
4097;DHT22;2062;50.694;7.246;2023-03-13T10:58:19;14.20;66.10
4097;DHT22;2062;50.694;7.246;2023-03-13T11:00:46;14.30;66.30
4097;DHT22;2062;50.694;7.246;2023-03-13T11:03:16;14.30;66.30
4097;DHT22;2062;50.694;7.246;2023-03-13T11:05:54;14.40;66.20
4097;DHT22;2062;50.694;7.246;2023-03-13T11:08:23;14.40;66.10
4097;DHT22;2062;50.694;7.246;2023-03-13T11:10:54;14.40;66.10
4097;DHT22;2062;50.694;7.246;2023-03-13T11:13:33;14.40;66.00
4097;DHT22;2062;50.694;7.246;2023-03-13T11:19:00;14.40;66.00
4097;DHT22;2062;50.694;7.246;2023-03-13T11:21:42;14.50;66.90
4097;DHT22;2062;50.694;7.246;2023-03-13T11:24:16;14.50;66.00
4097;DHT22;2062;50.694;7.246;2023-03-13T11:26:49;14.50;66.00
4097;DHT22;2062;50.694;7.246;2023-03-13T11:29:24;14.60;65.90
4097;DHT22;2062;50.694;7.246;2023-03-13T11:31:56;14.60;65.90
4097;DHT22;2062;50.694;7.246;2023-03-13T11:34:31;14.60;66.00
4097;DHT22;2062;50.694;7.246;2023-03-13T11:37:04;14.70;66.00
4097;DHT22;2062;50.694;7.246;2023-03-13T11:39:42;14.70;66.00
4097;DHT22;2062;50.694;7.246;2023-03-13T11:45:30;14.70;65.80
4097;DHT22;2062;50.694;7.246;2023-03-13T11:48:07;14.80;65.80
4097;DHT22;2062;50.694;7.246;2023-03-13T11:50:39;14.90;65.80
4097;DHT22;2062;50.694;7.246;2023-03-13T11:53:29;14.90;65.90
4097;DHT22;2062;50.694;7.246;2023-03-13T11:56:07;15.00;65.80
4097;DHT22;2062;50.694;7.246;2023-03-13T11:58:46;15.00;65.60
4097;DHT22;2062;50.694;7.246;2023-03-13T12:01:20;15.10;65.60
4097;DHT22;2062;50.694;7.246;2023-03-13T12:03:55;15.20;65.60
4097;DHT22;2062;50.694;7.246;2023-03-13T12:06:28;15.20;65.20
4097;DHT22;2062;50.694;7.246;2023-03-13T12:09:02;15.30;65.20
4097;DHT22;2062;50.694;7.246;2023-03-13T12:11:34;15.30;64.70
4097;DHT22;2062;50.694;7.246;2023-03-13T12:14:05;15.40;64.40
4097;DHT22;2062;50.694;7.246;2023-03-13T12:16:40;15.40;65.40
4097;DHT22;2062;50.694;7.246;2023-03-13T12:19:10;15.40;64.00
4097;DHT22;2062;50.694;7.246;2023-03-13T12:21:42;15.40;64.20
4097;DHT22;2062;50.694;7.246;2023-03-13T12:24:20;15.40;64.00
4097;DHT22;2062;50.694;7.246;2023-03-13T12:26:51;15.60;64.00
4097;DHT22;2062;50.694;7.246;2023-03-13T12:29:26;15.50;63.80
4097;DHT22;2062;50.694;7.246;2023-03-13T12:32:01;15.50;63.70
4097;DHT22;2062;50.694;7.246;2023-03-13T12:34:34;15.50;63.70
4097;DHT22;2062;50.694;7.246;2023-03-13T12:37:10;15.50;63.50
4097;DHT22;2062;50.694;7.246;2023-03-13T12:39:42;15.50;63.50
4097;DHT22;2062;50.694;7.246;2023-03-13T12:42:20;15.50;62.70
4097;DHT22;2062;50.694;7.246;2023-03-13T12:44:49;15.50;62.60
4097;DHT22;2062;50.694;7.246;2023-03-13T12:47:21;15.50;62.60
4097;DHT22;2062;50.694;7.246;2023-03-13T12:50:18;15.50;62.70
4097;DHT22;2062;50.694;7.246;2023-03-13T12:53:09;15.50;62.40
4097;DHT22;2062;50.694;7.246;2023-03-13T12:56:11;15.50;62.50
4097;DHT22;2062;50.694;7.246;2023-03-13T12:58:47;15.50;62.30
4097;DHT22;2062;50.694;7.246;2023-03-13T13:01:23;15.50;62.50
4097;DHT22;2062;50.694;7.246;2023-03-13T13:03:55;15.50;62.60
4097;DHT22;2062;50.694;7.246;2023-03-13T13:06:22;15.50;62.30
4097;DHT22;2062;50.694;7.246;2023-03-13T13:09:05;15.50;62.60
4097;DHT22;2062;50.694;7.246;2023-03-13T13:11:47;15.60;62.60
4097;DHT22;2062;50.694;7.246;2023-03-13T13:17:38;15.60;62.40
4097;DHT22;2062;50.694;7.246;2023-03-13T13:20:34;15.70;62.70
4097;DHT22;2062;50.694;7.246;2023-03-13T13:23:33;15.70;62.70
4097;DHT22;2062;50.694;7.246;2023-03-13T13:32:41;15.80;62.50
4097;DHT22;2062;50.694;7.246;2023-03-13T13:35:38;15.80;62.20
4097;DHT22;2062;50.694;7.246;2023-03-13T13:38:30;15.90;62.40
4097;DHT22;2062;50.694;7.246;2023-03-13T13:41:34;15.90;62.10
4097;DHT22;2062;50.694;7.246;2023-03-13T13:44:24;15.90;62.00
4097;DHT22;2062;50.694;7.246;2023-03-13T13:46:52;16.00;62.20
4097;DHT22;2062;50.694;7.246;2023-03-13T13:49:22;16.00;62.20
4097;DHT22;2062;50.694;7.246;2023-03-13T13:55:40;16.10;62.40
4097;DHT22;2062;50.694;7.246;2023-03-13T13:58:12;16.10;62.40
4097;DHT22;2062;50.694;7.246;2023-03-13T14:00:42;16.20;61.80
4097;DHT22;2062;50.694;7.246;2023-03-13T14:03:20;16.30;62.50
4097;DHT22;2062;50.694;7.246;2023-03-13T14:05:51;16.40;62.10
4097;DHT22;2062;50.694;7.246;2023-03-13T14:08:21;16.40;62.00
4097;DHT22;2062;50.694;7.246;2023-03-13T14:10:53;16.50;62.00
4097;DHT22;2062;50.694;7.246;2023-03-13T14:13:21;16.50;62.00
4097;DHT22;2062;50.694;7.246;2023-03-13T14:15:51;16.60;61.60
4097;DHT22;2062;50.694;7.246;2023-03-13T14:18:22;16.60;61.40
4097;DHT22;2062;50.694;7.246;2023-03-13T14:20:56;16.70;61.20
4097;DHT22;2062;50.694;7.246;2023-03-13T14:23:37;16.70;60.70
4097;DHT22;2062;50.694;7.246;2023-03-13T14:26:14;16.70;60.40
4097;DHT22;2062;50.694;7.246;2023-03-13T14:28:44;16.70;61.00
4097;DHT22;2062;50.694;7.246;2023-03-13T14:31:21;16.70;60.30
4097;DHT22;2062;50.694;7.246;2023-03-13T14:33:48;16.70;60.60
4097;DHT22;2062;50.694;7.246;2023-03-13T14:36:16;16.80;60.70
4097;DHT22;2062;50.694;7.246;2023-03-13T14:38:51;16.80;60.70
4097;DHT22;2062;50.694;7.246;2023-03-13T14:41:28;16.80;60.60
4097;DHT22;2062;50.694;7.246;2023-03-13T14:44:02;16.80;60.10
4097;DHT22;2062;50.694;7.246;2023-03-13T14:46:31;16.80;60.50
4097;DHT22;2062;50.694;7.246;2023-03-13T14:49:06;16.70;60.60
4097;DHT22;2062;50.694;7.246;2023-03-13T14:51:37;16.70;60.60
4097;DHT22;2062;50.694;7.246;2023-03-13T14:54:05;16.70;61.20
4097;DHT22;2062;50.694;7.246;2023-03-13T14:57:00;16.60;60.20
4097;DHT22;2062;50.694;7.246;2023-03-13T14:59:27;16.60;59.90
4097;DHT22;2062;50.694;7.246;2023-03-13T15:01:58;16.60;59.80
4097;DHT22;2062;50.694;7.246;2023-03-13T15:04:46;16.50;59.90
4097;DHT22;2062;50.694;7.246;2023-03-13T15:07:15;16.40;59.60
4097;DHT22;2062;50.694;7.246;2023-03-13T15:09:43;16.40;59.60
4097;DHT22;2062;50.694;7.246;2023-03-13T15:12:13;16.40;59.70
4097;DHT22;2062;50.694;7.246;2023-03-13T15:14:42;16.40;59.60
4097;DHT22;2062;50.694;7.246;2023-03-13T15:17:15;16.40;59.60
4097;DHT22;2062;50.694;7.246;2023-03-13T15:19:42;16.30;59.60
4097;DHT22;2062;50.694;7.246;2023-03-13T15:22:15;16.30;59.30
4097;DHT22;2062;50.694;7.246;2023-03-13T15:24:42;16.20;59.40
4097;DHT22;2062;50.694;7.246;2023-03-13T15:27:14;16.20;59.40
4097;DHT22;2062;50.694;7.246;2023-03-13T15:29:42;16.20;59.40
4097;DHT22;2062;50.694;7.246;2023-03-13T15:32:13;16.20;59.10
4097;DHT22;2062;50.694;7.246;2023-03-13T15:34:42;16.20;58.90
4097;DHT22;2062;50.694;7.246;2023-03-13T15:37:11;16.30;59.70
4097;DHT22;2062;50.694;7.246;2023-03-13T15:39:40;16.30;60.20
4097;DHT22;2062;50.694;7.246;2023-03-13T15:42:07;16.40;59.30
4097;DHT22;2062;50.694;7.246;2023-03-13T15:44:34;16.40;59.30
4097;DHT22;2062;50.694;7.246;2023-03-13T15:47:01;16.50;58.70
4097;DHT22;2062;50.694;7.246;2023-03-13T15:49:29;16.60;59.00
4097;DHT22;2062;50.694;7.246;2023-03-13T15:51:56;16.70;58.10
4097;DHT22;2062;50.694;7.246;2023-03-13T15:54:23;16.70;58.00
4097;DHT22;2062;50.694;7.246;2023-03-13T15:56:52;16.70;57.40
4097;DHT22;2062;50.694;7.246;2023-03-13T15:59:19;16.80;56.10
4097;DHT22;2062;50.694;7.246;2023-03-13T16:01:46;16.70;55.20
4097;DHT22;2062;50.694;7.246;2023-03-13T16:04:14;16.70;56.00
4097;DHT22;2062;50.694;7.246;2023-03-13T16:06:41;16.80;55.70
4097;DHT22;2062;50.694;7.246;2023-03-13T16:09:10;16.80;55.50
4097;DHT22;2062;50.694;7.246;2023-03-13T16:11:37;16.70;54.70
4097;DHT22;2062;50.694;7.246;2023-03-13T16:14:06;16.70;53.00
4097;DHT22;2062;50.694;7.246;2023-03-13T16:16:34;16.70;53.40
4097;DHT22;2062;50.694;7.246;2023-03-13T16:19:01;16.70;53.70
4097;DHT22;2062;50.694;7.246;2023-03-13T16:21:30;16.60;53.50
4097;DHT22;2062;50.694;7.246;2023-03-13T16:23:59;16.60;52.80
4097;DHT22;2062;50.694;7.246;2023-03-13T16:26:30;16.60;52.70
4097;DHT22;2062;50.694;7.246;2023-03-13T16:28:57;16.60;53.30
4097;DHT22;2062;50.694;7.246;2023-03-13T16:31:27;16.60;53.20
4097;DHT22;2062;50.694;7.246;2023-03-13T16:33:55;16.60;53.60
4097;DHT22;2062;50.694;7.246;2023-03-13T16:36:24;16.60;53.00
4097;DHT22;2062;50.694;7.246;2023-03-13T16:38:52;16.70;53.60
4097;DHT22;2062;50.694;7.246;2023-03-13T16:41:22;16.60;53.40